Startpagina
METAR-TAF:

METAR-TAF

Vliegvelden :

Talara, Peru

breedte: 04-34S, lengte: 081-15W, hoogte: 85 m

Actueel weer

Dit bericht is 1 uur en het 13 minuten geleden gemaakt, om 18:00 UTC
Wind 11 kt uit het westnoordwesten
Temperatuur 27°C
Vochtigheid 70%
Druk 1013 hPa
Zicht 10 km of meer
Weinig wolken op 3000 ft

METAR: SPYL 281800Z 29011KT 9999 FEW030 27/21 Q1013 RMK BIRD HAZARD RWY 17/35 PP000

Tijdstip: 14:13 (19:13 UTC)

Verwachting

Dit bericht is 2 uur en het 13 minuten geleden gemaakt, om 17:00 UTC
Verwachting geldig van 28 om 18 UTC tot 29 om 18 UTC
Wind 13 kt uit het westzuidwesten
Zicht 10 km of meer
Verspreide wolken op 5000 ft

TAF: SPYL 281700Z 2818/2918 25013KT 9999 SCT050 TX33/2819Z TN22/2911Z

Waarnemingen en weersverwachtingen van meer dan 4000 vliegvelden (METAR en TAF).

De beschikbare stations zijn de gele en rode punten op de kaart.

Ga met uw muis naar het station om de naam te zien.

Klik dan om waarnemingen en weersverwachtingen te zien.

kaart wijzigen: klik op de groene knoppen met een zwart kruis om in te zoomen, op de groene knop met een streepje om uit te zoomen of op de groene pijlen voor aangrenzende kaarten.


METAR-TAF: